createdAt,value
2022-08-05T00:01:28.135Z,72.93
2022-08-05T00:03:56.972Z,72.70
2022-08-05T00:06:32.425Z,72.88
2022-08-05T00:09:00.687Z,72.98
2022-08-05T00:11:34.428Z,73.09
2022-08-05T00:14:02.164Z,73.58
2022-08-05T00:16:35.557Z,73.61
2022-08-05T00:19:04.849Z,73.25
2022-08-05T00:21:35.857Z,73.58
2022-08-05T00:24:09.896Z,74.04
2022-08-05T00:26:37.397Z,73.97
2022-08-05T00:29:04.004Z,73.90
2022-08-05T00:31:53.884Z,73.96
2022-08-05T00:34:53.308Z,74.02
2022-08-05T00:37:10.483Z,74.02
2022-08-05T00:39:57.418Z,74.09
2022-08-05T00:42:33.346Z,73.83
2022-08-05T00:45:00.906Z,73.90
2022-08-05T00:47:31.624Z,73.76
2022-08-05T00:50:14.846Z,73.81
2022-08-05T00:52:41.786Z,74.39
2022-08-05T00:55:12.303Z,74.17
2022-08-05T00:57:57.868Z,74.86
2022-08-05T01:00:30.241Z,75.13
2022-08-05T01:02:59.742Z,74.90
2022-08-05T01:05:27.381Z,74.92
2022-08-05T01:08:40.002Z,74.92
2022-08-05T01:10:51.595Z,74.92
2022-08-05T01:13:57.835Z,74.68
2022-08-05T01:16:49.070Z,75.15
2022-08-05T01:19:21.692Z,75.13
2022-08-05T01:22:18.787Z,75.38
2022-08-05T01:24:50.847Z,75.41
2022-08-05T01:27:55.905Z,75.75
2022-08-05T01:30:33.754Z,75.89
2022-08-05T01:33:06.099Z,75.82
2022-08-05T01:35:52.214Z,75.45
2022-08-05T01:38:27.482Z,75.64
2022-08-05T01:41:01.392Z,75.55
2022-08-05T01:43:29.492Z,75.60
2022-08-05T01:45:58.748Z,75.37
2022-08-05T01:48:36.695Z,75.52
2022-08-05T01:51:12.405Z,75.40
2022-08-05T01:53:56.898Z,75.50
2022-08-05T01:58:09.563Z,75.65
2022-08-05T01:59:19.675Z,75.44
2022-08-05T02:01:49.581Z,76.24
2022-08-05T02:04:19.611Z,75.68
2022-08-05T02:06:46.324Z,76.42
2022-08-05T02:09:16.318Z,76.41
2022-08-05T02:11:53.193Z,76.74
2022-08-05T02:14:40.114Z,77.00
2022-08-05T02:18:28.384Z,76.64
2022-08-05T02:20:20.627Z,76.69
2022-08-05T02:22:56.919Z,77.08
2022-08-05T02:25:33.013Z,76.84
2022-08-05T02:28:02.360Z,76.75
2022-08-05T02:30:51.702Z,76.95
2022-08-05T02:33:24.394Z,76.89
2022-08-05T02:36:05.008Z,76.80
2022-08-05T02:38:35.531Z,76.63
2022-08-05T02:41:14.570Z,76.30
2022-08-05T02:44:02.263Z,77.13
2022-08-05T02:46:33.631Z,76.68
2022-08-05T02:49:01.746Z,77.10
2022-08-05T02:52:02.882Z,77.00
2022-08-05T02:54:34.998Z,77.09
2022-08-05T02:57:10.194Z,77.45
2022-08-05T02:59:54.351Z,77.17
2022-08-05T03:02:27.564Z,77.17
2022-08-05T03:04:57.390Z,77.41
2022-08-05T03:08:00.157Z,77.17
2022-08-05T03:10:15.800Z,77.08
2022-08-05T03:12:51.968Z,77.01
2022-08-05T03:15:18.599Z,76.51
2022-08-05T03:17:46.540Z,77.02
2022-08-05T03:20:13.519Z,76.52
2022-08-05T03:22:44.128Z,76.75
2022-08-05T03:25:32.834Z,76.59
2022-08-05T03:28:08.328Z,76.45
2022-08-05T03:30:36.634Z,76.50
2022-08-05T03:33:07.360Z,76.47
2022-08-05T03:35:41.173Z,76.42
2022-08-05T03:38:11.679Z,76.60
2022-08-05T03:40:45.254Z,76.59
2022-08-05T03:43:58.814Z,76.61
2022-08-05T03:46:02.667Z,76.65
2022-08-05T03:48:30.392Z,76.83
2022-08-05T03:52:48.779Z,76.75
2022-08-05T03:56:00.824Z,76.50
2022-08-05T03:57:02.240Z,76.38
2022-08-05T03:59:58.391Z,76.17
2022-08-05T04:02:37.544Z,75.92
2022-08-05T04:05:09.895Z,75.52
2022-08-05T04:07:57.287Z,75.65
2022-08-05T04:10:31.981Z,75.31
2022-08-05T04:13:00.641Z,74.90
2022-08-05T04:15:33.286Z,74.94
2022-08-05T04:18:06.688Z,74.89
2022-08-05T04:20:34.069Z,74.65
2022-08-05T04:23:00.742Z,74.38
2022-08-05T04:25:58.047Z,74.07
2022-08-05T04:28:14.654Z,73.85
2022-08-05T04:30:41.738Z,73.58
2022-08-05T04:33:09.569Z,73.08
2022-08-05T04:36:10.634Z,73.10
2022-08-05T04:38:22.915Z,72.84
2022-08-05T04:41:07.326Z,72.63
2022-08-05T04:43:35.990Z,72.28
2022-08-05T04:46:05.009Z,72.13
2022-08-05T04:48:31.957Z,71.93
2022-08-05T04:51:02.975Z,71.63
2022-08-05T04:53:36.562Z,71.90
2022-08-05T04:56:32.810Z,71.43
2022-08-05T04:58:56.534Z,71.22
2022-08-05T05:02:07.981Z,71.26
2022-08-05T05:04:10.499Z,70.93
2022-08-05T05:06:40.906Z,70.38
2022-08-05T05:09:17.571Z,70.13
2022-08-05T05:11:54.465Z,69.72
2022-08-05T05:14:27.708Z,69.41
2022-08-05T05:17:00.362Z,69.16
2022-08-05T05:19:36.445Z,69.12
2022-08-05T05:22:22.718Z,68.80
2022-08-05T05:24:59.025Z,68.71
2022-08-05T05:27:45.867Z,68.52
2022-08-05T05:30:31.203Z,67.70
2022-08-05T05:33:09.215Z,66.91
2022-08-05T05:35:45.290Z,67.26
2022-08-05T05:38:13.849Z,67.32
2022-08-05T05:40:50.089Z,65.83
2022-08-05T05:43:27.896Z,64.92
2022-08-05T05:46:12.110Z,64.75
2022-08-05T05:48:44.066Z,65.29
2022-08-05T05:51:15.812Z,64.34
2022-08-05T05:53:54.092Z,64.12
2022-08-05T05:56:32.675Z,63.94
2022-08-05T05:59:03.523Z,63.46
2022-08-05T06:01:38.130Z,62.66
2022-08-05T06:04:11.668Z,62.26
2022-08-05T06:06:46.615Z,62.00
2022-08-05T06:09:16.604Z,62.12
2022-08-05T06:11:59.419Z,61.38
2022-08-05T06:14:29.749Z,61.14
2022-08-05T06:16:57.132Z,59.94
2022-08-05T06:19:34.079Z,59.99
2022-08-05T06:22:06.640Z,60.42
2022-08-05T06:24:35.065Z,59.72
2022-08-05T06:27:02.213Z,58.77
2022-08-05T06:29:48.927Z,58.84
2022-08-05T06:32:25.101Z,56.62
2022-08-05T06:34:56.524Z,56.96
2022-08-05T06:37:56.611Z,57.04
2022-08-05T06:40:20.535Z,56.96
2022-08-05T06:42:52.083Z,55.85
2022-08-05T06:46:02.929Z,56.24
2022-08-05T06:48:36.685Z,55.61
2022-08-05T06:50:56.477Z,55.18
2022-08-05T06:53:28.572Z,55.51
2022-08-05T06:56:00.312Z,54.87
2022-08-05T06:58:34.836Z,54.13
2022-08-05T07:01:06.019Z,53.63
2022-08-05T07:03:33.724Z,54.04
2022-08-05T07:06:05.845Z,53.46
2022-08-05T07:08:40.580Z,53.91
2022-08-05T07:11:15.239Z,54.17
2022-08-05T07:14:29.395Z,52.90
2022-08-05T07:17:58.779Z,53.15
2022-08-05T07:22:35.745Z,53.02
2022-08-05T07:25:23.620Z,53.15
2022-08-05T07:27:58.422Z,51.68
2022-08-05T07:30:34.712Z,51.67
2022-08-05T07:33:09.270Z,50.93
2022-08-05T07:36:02.653Z,51.12
2022-08-05T07:38:33.580Z,49.60
2022-08-05T07:42:14.242Z,50.10
2022-08-05T07:44:06.371Z,49.06
2022-08-05T07:46:41.291Z,49.23
2022-08-05T07:49:14.912Z,49.41
2022-08-05T07:51:54.056Z,47.88
2022-08-05T07:54:31.511Z,46.21
2022-08-05T07:57:16.941Z,45.75
2022-08-05T07:59:50.933Z,45.40
2022-08-05T08:02:18.175Z,44.76
2022-08-05T08:04:47.298Z,45.31
2022-08-05T08:07:14.943Z,46.27
2022-08-05T08:09:42.136Z,45.99
2022-08-05T08:12:20.974Z,45.93
2022-08-05T08:14:55.449Z,45.38
2022-08-05T08:17:23.575Z,44.65
2022-08-05T08:20:21.419Z,45.26
2022-08-05T08:22:37.399Z,44.96
2022-08-05T08:25:16.201Z,44.11
2022-08-05T08:27:47.398Z,43.90
2022-08-05T08:30:30.027Z,43.59
2022-08-05T08:33:08.234Z,42.13
2022-08-05T08:35:40.972Z,43.26
2022-08-05T08:38:08.696Z,43.09
2022-08-05T08:40:50.494Z,43.61
2022-08-05T08:45:17.065Z,42.38
2022-08-05T08:46:06.413Z,42.42
2022-08-05T08:48:59.365Z,42.26
2022-08-05T08:52:03.553Z,41.18
2022-08-05T08:54:14.375Z,40.75
2022-08-05T08:56:47.748Z,39.53
2022-08-05T08:59:19.351Z,39.98
2022-08-05T09:01:57.326Z,38.37
2022-08-05T09:04:30.574Z,39.91
2022-08-05T09:06:57.830Z,39.12
2022-08-05T09:09:25.412Z,38.92
2022-08-05T09:11:54.776Z,38.25
2022-08-05T09:14:58.531Z,37.47
2022-08-05T09:17:40.908Z,37.94
2022-08-05T09:20:02.729Z,37.89
2022-08-05T09:23:09.579Z,37.39
2022-08-05T09:26:00.196Z,37.24
2022-08-05T09:28:32.182Z,35.00
2022-08-05T09:31:44.008Z,36.64
2022-08-05T09:34:05.951Z,36.03
2022-08-05T09:36:55.186Z,34.73
2022-08-05T09:39:27.817Z,35.00
2022-08-05T09:42:11.371Z,34.58
2022-08-05T09:44:49.305Z,33.58
2022-08-05T09:47:23.541Z,34.27
2022-08-05T09:50:01.951Z,34.17
2022-08-05T09:52:35.563Z,33.04
2022-08-05T09:55:06.289Z,33.02
2022-08-05T09:57:39.747Z,32.13
2022-08-05T10:00:16.297Z,32.15
2022-08-05T10:02:51.594Z,31.72
2022-08-05T10:05:20.541Z,31.64
2022-08-05T10:08:34.653Z,32.98
2022-08-05T10:10:45.633Z,32.73
2022-08-05T10:13:27.316Z,32.22
2022-08-05T10:16:07.808Z,32.41
2022-08-05T10:18:34.615Z,31.60
2022-08-05T10:21:08.428Z,29.85
2022-08-05T10:23:56.412Z,30.41
2022-08-05T10:26:32.660Z,29.38
2022-08-05T10:29:00.977Z,29.00
2022-08-05T10:32:54.653Z,28.42
2022-08-05T10:34:14.511Z,29.06
2022-08-05T10:36:44.155Z,28.13
2022-08-05T10:39:59.214Z,28.81
2022-08-05T10:42:33.970Z,27.61
2022-08-05T10:45:01.836Z,26.38
2022-08-05T10:47:34.349Z,26.74
2022-08-05T10:50:33.130Z,26.31
2022-08-05T10:53:01.083Z,26.07
2022-08-05T10:55:30.320Z,26.85
2022-08-05T10:58:11.400Z,26.45
2022-08-05T11:00:42.210Z,25.18
2022-08-05T11:03:25.053Z,25.62
2022-08-05T11:06:16.094Z,26.93
2022-08-05T11:09:32.056Z,28.15
2022-08-05T11:12:37.311Z,26.71
2022-08-05T11:15:20.068Z,25.90
2022-08-05T11:17:59.782Z,26.28
2022-08-05T11:20:34.181Z,26.84
2022-08-05T11:23:08.788Z,26.42
2022-08-05T11:26:05.698Z,25.15
2022-08-05T11:28:33.440Z,23.25
2022-08-05T11:31:06.482Z,21.55
2022-08-05T11:33:46.302Z,21.06
2022-08-05T11:36:34.256Z,18.75
2022-08-05T11:39:08.935Z,19.60
2022-08-05T11:41:58.072Z,18.13
2022-08-05T11:44:53.447Z,16.08
2022-08-05T11:47:22.144Z,14.71
2022-08-05T11:50:08.296Z,13.55
2022-08-05T11:52:35.215Z,16.59
2022-08-05T11:55:07.336Z,20.08
2022-08-05T11:58:08.164Z,19.84
2022-08-05T12:00:31.218Z,15.96
2022-08-05T12:02:58.003Z,19.05
2022-08-05T12:05:36.312Z,21.48
2022-08-05T12:08:09.875Z,22.25
2022-08-05T12:10:45.258Z,17.66
2022-08-05T12:13:28.216Z,15.03
2022-08-05T12:16:14.590Z,13.43
2022-08-05T12:18:49.449Z,12.38
2022-08-05T12:21:39.005Z,13.87
2022-08-05T12:24:14.118Z,12.95
2022-08-05T12:26:53.017Z,11.28
2022-08-05T12:29:23.718Z,10.54
2022-08-05T12:31:55.652Z,10.12
2022-08-05T12:34:28.238Z,10.00
2022-08-05T12:36:56.977Z,10.68
2022-08-05T12:39:28.052Z,11.05
2022-08-05T12:42:02.511Z,13.79
2022-08-05T12:44:33.838Z,17.56
2022-08-05T12:47:02.046Z,20.49
2022-08-05T12:50:04.221Z,23.42
2022-08-05T12:52:32.445Z,25.60
2022-08-05T12:55:36.671Z,27.20
2022-08-05T12:58:50.693Z,27.49
2022-08-05T13:02:02.062Z,24.81
2022-08-05T13:03:42.250Z,20.24
2022-08-05T13:06:14.445Z,17.22
2022-08-05T13:08:50.664Z,14.99
2022-08-05T13:11:25.616Z,14.58
2022-08-05T13:14:19.732Z,14.26
2022-08-05T13:16:57.766Z,16.35
2022-08-05T13:19:40.267Z,19.16
2022-08-05T13:22:15.039Z,22.35
2022-08-05T13:25:00.378Z,25.14
2022-08-05T13:27:38.184Z,27.11
2022-08-05T13:30:34.220Z,28.49
2022-08-05T13:32:53.935Z,28.99
2022-08-05T13:35:43.204Z,28.48
2022-08-05T13:38:11.524Z,28.26
2022-08-05T13:40:51.310Z,26.98
2022-08-05T13:43:22.089Z,25.27
2022-08-05T13:45:49.140Z,27.40
2022-08-05T13:48:58.712Z,28.92
2022-08-05T13:51:09.541Z,28.76
2022-08-05T13:53:47.992Z,29.81
2022-08-05T13:56:18.336Z,30.22
2022-08-05T13:58:52.829Z,30.81
2022-08-05T14:01:25.922Z,31.49
2022-08-05T14:04:21.485Z,31.75
2022-08-05T14:06:48.095Z,31.54
2022-08-05T14:09:25.527Z,32.30
2022-08-05T14:12:04.138Z,32.37
2022-08-05T14:14:43.063Z,33.39
2022-08-05T14:17:16.995Z,33.32
2022-08-05T14:19:54.645Z,34.25
2022-08-05T14:22:23.695Z,34.31
2022-08-05T14:24:56.827Z,34.04
2022-08-05T14:27:23.714Z,34.23
2022-08-05T14:29:56.370Z,34.83
2022-08-05T14:32:27.264Z,34.74
2022-08-05T14:34:57.023Z,34.77
2022-08-05T14:37:45.452Z,35.16
2022-08-05T14:40:14.089Z,34.95
2022-08-05T14:42:43.245Z,34.63
2022-08-05T14:45:10.259Z,35.25
2022-08-05T14:48:05.267Z,34.83
2022-08-05T14:50:25.353Z,35.84
2022-08-05T14:52:57.795Z,35.75
2022-08-05T14:55:28.702Z,35.59
2022-08-05T14:58:10.932Z,35.61
2022-08-05T15:00:59.830Z,36.46
2022-08-05T15:03:34.137Z,36.75
2022-08-05T15:06:12.754Z,37.33
2022-08-05T15:08:59.145Z,37.56
2022-08-05T15:11:51.788Z,37.21
2022-08-05T15:14:33.314Z,36.98
2022-08-05T15:17:01.033Z,37.65
2022-08-05T15:19:27.647Z,37.46
2022-08-05T15:21:54.548Z,37.83
2022-08-05T15:24:27.577Z,37.27
2022-08-05T15:26:54.133Z,37.30
2022-08-05T15:29:22.964Z,37.41
2022-08-05T15:31:52.954Z,37.51
2022-08-05T15:34:32.869Z,37.73
2022-08-05T15:37:06.256Z,37.75
2022-08-05T15:40:59.733Z,37.86
2022-08-05T15:42:53.965Z,38.32
2022-08-05T15:45:18.667Z,38.99
2022-08-05T15:47:49.704Z,39.08
2022-08-05T15:50:21.070Z,39.35
2022-08-05T15:52:55.008Z,39.42
2022-08-05T15:55:24.497Z,39.42
2022-08-05T15:57:55.259Z,39.52
2022-08-05T16:00:42.926Z,39.65
2022-08-05T16:03:12.901Z,39.36
2022-08-05T16:05:41.727Z,39.92
2022-08-05T16:08:08.613Z,39.63
2022-08-05T16:10:35.326Z,39.67
2022-08-05T16:13:02.814Z,39.65
2022-08-05T16:15:32.539Z,40.10
2022-08-05T16:18:00.578Z,41.22
2022-08-05T16:20:30.815Z,41.28
2022-08-05T16:22:59.077Z,41.91
2022-08-05T16:25:33.821Z,41.71
2022-08-05T16:28:05.315Z,41.77
2022-08-05T16:30:34.205Z,42.45
2022-08-05T16:33:04.509Z,41.68
2022-08-05T16:35:32.410Z,41.97
2022-08-05T16:38:03.235Z,42.47
2022-08-05T16:40:52.316Z,42.79
2022-08-05T16:43:25.782Z,42.08
2022-08-05T16:46:04.034Z,42.65
2022-08-05T16:48:37.867Z,42.64
2022-08-05T16:51:08.994Z,43.03
2022-08-05T16:54:04.928Z,43.26
2022-08-05T16:56:29.882Z,43.08
2022-08-05T16:58:57.816Z,43.27
2022-08-05T17:01:24.675Z,43.98
2022-08-05T17:03:51.873Z,43.62
2022-08-05T17:06:19.037Z,44.07
2022-08-05T17:08:54.347Z,44.75
2022-08-05T17:11:23.781Z,44.51
2022-08-05T17:14:00.601Z,44.79
2022-08-05T17:16:37.637Z,45.81
2022-08-05T17:19:07.853Z,45.60
2022-08-05T17:21:37.351Z,45.35
2022-08-05T17:24:14.267Z,45.33
2022-08-05T17:26:53.544Z,45.91
2022-08-05T17:29:39.907Z,46.02
2022-08-05T17:32:17.131Z,46.14
2022-08-05T17:34:48.371Z,46.04
2022-08-05T17:37:40.521Z,46.43
2022-08-05T17:40:10.090Z,46.97
2022-08-05T17:42:41.738Z,46.93
2022-08-05T17:45:21.331Z,46.80
2022-08-05T17:47:54.398Z,46.91
2022-08-05T17:50:28.150Z,47.24
2022-08-05T17:52:55.957Z,47.25
2022-08-05T17:55:27.348Z,47.68
2022-08-05T17:58:02.065Z,47.90
2022-08-05T18:00:29.494Z,48.59
2022-08-05T18:02:56.482Z,48.37
2022-08-05T18:05:23.883Z,48.62
2022-08-05T18:07:54.718Z,49.15
2022-08-05T18:10:25.003Z,49.58
2022-08-05T18:12:52.284Z,49.66
2022-08-05T18:15:18.924Z,50.43
2022-08-05T18:18:00.134Z,50.01
2022-08-05T18:20:31.935Z,50.41
2022-08-05T18:23:09.557Z,50.37
2022-08-05T18:25:45.589Z,50.36
2022-08-05T18:28:16.642Z,51.02
2022-08-05T18:30:45.668Z,51.29
2022-08-05T18:33:17.712Z,51.52
2022-08-05T18:36:03.409Z,51.33
2022-08-05T18:38:35.952Z,51.52
2022-08-05T18:41:53.666Z,51.49
2022-08-05T18:43:54.132Z,51.59
2022-08-05T18:46:20.850Z,51.96
2022-08-05T18:48:51.956Z,51.97
2022-08-05T18:52:06.258Z,53.05
2022-08-05T18:54:31.717Z,53.84
2022-08-05T18:57:01.059Z,54.06
2022-08-05T18:59:44.278Z,53.43
2022-08-05T19:02:26.991Z,54.12
2022-08-05T19:05:02.733Z,54.55
2022-08-05T19:07:45.861Z,54.81
2022-08-05T19:10:14.548Z,55.64
2022-08-05T19:12:41.342Z,55.27
2022-08-05T19:15:25.152Z,55.19
2022-08-05T19:18:08.739Z,55.65
2022-08-05T19:20:36.891Z,56.07
2022-08-05T19:23:07.688Z,56.20
2022-08-05T19:25:38.172Z,56.63
2022-08-05T19:28:09.907Z,56.78
2022-08-05T19:30:36.672Z,56.61
2022-08-05T19:33:05.140Z,57.08
2022-08-05T19:35:55.729Z,56.90
2022-08-05T19:38:24.542Z,57.41
2022-08-05T19:40:53.609Z,57.98
2022-08-05T19:44:03.871Z,58.08
2022-08-05T19:46:06.794Z,57.80
2022-08-05T19:48:53.343Z,58.38
2022-08-05T19:51:56.602Z,58.25
2022-08-05T19:54:26.649Z,58.28
2022-08-05T19:56:55.230Z,59.13
2022-08-05T19:59:56.170Z,58.82
2022-08-05T20:02:08.667Z,59.11
2022-08-05T20:04:36.906Z,59.48
2022-08-05T20:07:03.579Z,59.21
2022-08-05T20:09:54.567Z,59.41
2022-08-05T20:12:23.647Z,59.30
2022-08-05T20:14:52.304Z,59.37
2022-08-05T20:17:23.482Z,59.49
2022-08-05T20:19:56.751Z,59.50
2022-08-05T20:22:24.229Z,59.81
2022-08-05T20:24:53.841Z,60.02
2022-08-05T20:27:21.063Z,60.08
2022-08-05T20:29:58.222Z,59.87
2022-08-05T20:32:27.265Z,59.82
2022-08-05T20:34:54.538Z,59.99
2022-08-05T20:38:04.721Z,60.06
2022-08-05T20:40:09.500Z,60.25
2022-08-05T20:42:36.283Z,59.67
2022-08-05T20:45:04.497Z,59.97
2022-08-05T20:47:33.302Z,59.89
2022-08-05T20:50:02.100Z,60.18
2022-08-05T20:52:29.749Z,59.71
2022-08-05T20:55:54.343Z,60.29
2022-08-05T20:57:44.848Z,60.08
2022-08-05T21:00:35.086Z,60.71
2022-08-05T21:03:06.129Z,60.59
2022-08-05T21:05:48.098Z,60.52
2022-08-05T21:08:28.115Z,60.78
2022-08-05T21:11:15.136Z,61.27
2022-08-05T21:13:59.425Z,61.23
2022-08-05T21:16:29.949Z,61.00
2022-08-05T21:19:00.177Z,61.04
2022-08-05T21:21:44.522Z,61.46
2022-08-05T21:24:16.212Z,61.36
2022-08-05T21:26:53.650Z,61.38
2022-08-05T21:29:31.301Z,61.56
2022-08-05T21:31:59.715Z,61.26
2022-08-05T21:34:28.188Z,62.02
2022-08-05T21:36:54.993Z,62.16
2022-08-05T21:39:26.907Z,62.14
2022-08-05T21:42:01.147Z,62.31
2022-08-05T21:44:32.115Z,61.71
2022-08-05T21:46:59.473Z,61.76
2022-08-05T21:49:48.386Z,62.47
2022-08-05T21:52:23.054Z,61.96
2022-08-05T21:54:55.592Z,62.56
2022-08-05T21:57:31.185Z,62.88
2022-08-05T22:00:10.844Z,62.79
2022-08-05T22:02:42.485Z,63.54
2022-08-05T22:05:10.644Z,63.77
2022-08-05T22:07:39.889Z,63.16
2022-08-05T22:10:26.669Z,63.55
2022-08-05T22:12:59.088Z,63.24
2022-08-05T22:16:00.887Z,63.10
2022-08-05T22:18:24.892Z,63.49
2022-08-05T22:20:52.801Z,63.52
2022-08-05T22:24:01.006Z,64.05
2022-08-05T22:26:49.739Z,64.15
2022-08-05T22:29:18.674Z,63.95
2022-08-05T22:31:45.754Z,64.29
2022-08-05T22:34:28.193Z,64.85
2022-08-05T22:36:56.952Z,64.82
2022-08-05T22:39:32.532Z,64.46
2022-08-05T22:42:09.811Z,64.56
2022-08-05T22:44:38.686Z,65.05
2022-08-05T22:47:06.035Z,64.62
2022-08-05T22:50:17.760Z,64.99
2022-08-05T22:52:30.246Z,65.07
2022-08-05T22:55:01.748Z,64.98
2022-08-05T22:57:34.129Z,65.13
2022-08-05T23:00:07.754Z,64.71
2022-08-05T23:02:35.910Z,65.19
2022-08-05T23:05:12.940Z,65.08
2022-08-05T23:07:45.005Z,65.13
2022-08-05T23:10:14.975Z,65.16
2022-08-05T23:12:43.826Z,65.19
2022-08-05T23:15:11.923Z,65.89
2022-08-05T23:18:01.699Z,65.60
2022-08-05T23:20:25.411Z,65.43
2022-08-05T23:22:56.175Z,66.36
2022-08-05T23:25:52.524Z,65.95
2022-08-05T23:28:10.969Z,65.90
2022-08-05T23:30:39.972Z,65.89
2022-08-05T23:33:22.140Z,65.92
2022-08-05T23:35:55.886Z,65.89
2022-08-05T23:38:24.184Z,65.53
2022-08-05T23:40:52.736Z,65.98
2022-08-05T23:43:25.206Z,66.20
2022-08-05T23:46:20.369Z,66.41
2022-08-05T23:49:00.973Z,66.56
2022-08-05T23:51:54.218Z,66.58
2022-08-05T23:54:30.269Z,66.87
2022-08-05T23:57:04.762Z,66.86
2022-08-05T23:59:37.669Z,66.46
